createdAt,value
2019-02-06T00:02:10.176Z,99220.13
2019-02-06T00:04:42.184Z,99216.33
2019-02-06T00:07:14.193Z,99224.84
2019-02-06T00:09:46.225Z,99226.45
2019-02-06T00:12:18.188Z,99226.58
2019-02-06T00:14:50.180Z,99219.45
2019-02-06T00:17:22.235Z,99219.23
2019-02-06T00:19:54.237Z,99221.48
2019-02-06T00:22:26.209Z,99220.59
2019-02-06T00:24:58.199Z,99217.09
2019-02-06T00:27:30.192Z,99215.45
2019-02-06T00:30:03.181Z,99214.97
2019-02-06T00:32:35.244Z,99221.00
2019-02-06T00:35:07.251Z,99220.32
2019-02-06T00:37:39.257Z,99212.80
2019-02-06T00:40:11.240Z,99219.33
2019-02-06T00:42:43.248Z,99228.73
2019-02-06T00:45:15.364Z,99218.14
2019-02-06T00:47:47.403Z,99218.63
2019-02-06T00:50:19.350Z,99213.95
2019-02-06T00:52:51.357Z,99219.01
2019-02-06T00:55:23.323Z,99220.64
2019-02-06T00:57:55.333Z,99217.61
2019-02-06T01:00:27.411Z,99218.14
2019-02-06T01:02:59.797Z,99217.94
2019-02-06T01:05:38.494Z,99219.88
2019-02-06T01:08:05.768Z,99216.69
2019-02-06T01:10:37.719Z,99220.75
2019-02-06T01:13:10.247Z,99226.40
2019-02-06T01:15:42.716Z,99221.36
2019-02-06T01:18:14.760Z,99223.15
2019-02-06T01:20:46.752Z,99221.19
2019-02-06T01:23:18.727Z,99217.75
2019-02-06T01:25:50.813Z,99219.01
2019-02-06T01:28:23.112Z,99219.55
2019-02-06T01:31:01.801Z,99218.69
2019-02-06T01:33:33.787Z,99215.97
2019-02-06T01:36:05.770Z,99207.83
2019-02-06T01:38:37.759Z,99220.50
2019-02-06T01:41:09.771Z,99209.03
2019-02-06T01:43:41.796Z,99213.17
2019-02-06T01:46:13.782Z,99205.42
2019-02-06T01:48:45.783Z,99207.19
2019-02-06T01:51:17.750Z,99208.29
2019-02-06T01:53:49.718Z,99203.41
2019-02-06T01:56:21.677Z,99206.08
2019-02-06T01:58:53.654Z,99208.08
2019-02-06T02:01:25.654Z,99206.30
2019-02-06T02:03:57.721Z,99204.15
2019-02-06T02:06:29.813Z,99198.90
2019-02-06T02:09:03.899Z,99207.58
2019-02-06T02:11:35.953Z,99205.43
2019-02-06T02:14:07.926Z,99210.05
2019-02-06T02:16:40.015Z,99210.94
2019-02-06T02:19:11.973Z,99205.76
2019-02-06T02:21:43.985Z,99209.37
2019-02-06T02:24:15.966Z,99203.79
2019-02-06T02:26:47.941Z,99211.89
2019-02-06T02:29:19.902Z,99209.39
2019-02-06T02:31:51.891Z,99213.94
2019-02-06T02:34:23.823Z,99221.38
2019-02-06T02:36:55.876Z,99214.12
2019-02-06T02:39:27.864Z,99217.26
2019-02-06T02:41:59.887Z,99221.66
2019-02-06T02:44:31.894Z,99220.62
2019-02-06T02:47:03.878Z,99221.13
2019-02-06T02:49:35.841Z,99217.52
2019-02-06T02:52:07.842Z,99213.26
2019-02-06T02:54:39.787Z,99216.84
2019-02-06T02:57:11.872Z,99210.00
2019-02-06T02:59:43.885Z,99211.03
2019-02-06T03:02:42.130Z,99201.45
2019-02-06T03:05:18.294Z,99198.71
2019-02-06T03:07:50.298Z,99192.83
2019-02-06T03:10:23.398Z,99197.55
2019-02-06T03:12:55.397Z,99194.51
2019-02-06T03:15:27.643Z,99198.12
2019-02-06T03:17:59.645Z,99195.08
2019-02-06T03:20:31.608Z,99189.86
2019-02-06T03:23:03.714Z,99189.58
2019-02-06T03:25:35.680Z,99195.76
2019-02-06T03:28:07.850Z,99194.83
2019-02-06T03:30:39.834Z,99191.05
2019-02-06T03:33:11.832Z,99188.04
2019-02-06T03:35:43.811Z,99192.25
2019-02-06T03:38:15.785Z,99181.17
2019-02-06T03:40:47.794Z,99185.53
2019-02-06T03:43:19.819Z,99185.21
2019-02-06T03:45:51.785Z,99186.39
2019-02-06T03:48:23.799Z,99182.39
2019-02-06T03:50:55.743Z,99184.31
2019-02-06T03:53:29.646Z,99175.81
2019-02-06T03:56:01.608Z,99173.81
2019-02-06T03:58:33.583Z,99177.31
2019-02-06T04:01:05.601Z,99184.86
2019-02-06T04:03:37.582Z,99184.97
2019-02-06T04:06:09.698Z,99185.86
2019-02-06T04:08:41.844Z,99191.58
2019-02-06T04:11:13.879Z,99186.61
2019-02-06T04:13:45.917Z,99194.11
2019-02-06T04:16:17.929Z,99198.94
2019-02-06T04:18:49.931Z,99195.94
2019-02-06T04:21:21.924Z,99189.11
2019-02-06T04:23:53.945Z,99186.86
2019-02-06T04:26:26.061Z,99190.68
2019-02-06T04:28:58.059Z,99189.17
2019-02-06T04:31:30.046Z,99189.09
2019-02-06T04:34:02.037Z,99185.53
2019-02-06T04:36:34.077Z,99186.67
2019-02-06T04:39:07.284Z,99182.32
2019-02-06T04:41:39.304Z,99185.28
2019-02-06T04:44:11.382Z,99177.24
2019-02-06T04:46:43.402Z,99177.13
2019-02-06T04:49:15.383Z,99181.59
2019-02-06T04:51:47.473Z,99177.59
2019-02-06T04:54:19.489Z,99172.05
2019-02-06T04:56:51.421Z,99169.55
2019-02-06T04:59:23.450Z,99173.30
2019-02-06T05:01:55.438Z,99175.09
2019-02-06T05:04:27.386Z,99169.02
2019-02-06T05:06:59.417Z,99167.83
2019-02-06T05:09:31.381Z,99172.48
2019-02-06T05:12:03.381Z,99174.22
2019-02-06T05:14:35.333Z,99175.61
2019-02-06T05:17:07.342Z,99180.59
2019-02-06T05:19:39.297Z,99185.30
2019-02-06T05:22:11.285Z,99184.84
2019-02-06T05:24:43.782Z,99186.38
2019-02-06T05:27:15.797Z,99183.11
2019-02-06T05:29:47.751Z,99182.09
2019-02-06T05:32:20.849Z,99188.30
2019-02-06T05:34:52.803Z,99183.40
2019-02-06T05:37:32.055Z,99182.91
2019-02-06T05:39:58.724Z,99176.48
2019-02-06T05:42:30.752Z,99180.27
2019-02-06T05:45:04.701Z,99177.06
2019-02-06T05:47:36.701Z,99172.98
2019-02-06T05:50:09.979Z,99176.59
2019-02-06T05:52:41.934Z,99168.70
2019-02-06T05:55:14.842Z,99171.41
2019-02-06T05:57:47.489Z,99174.98
2019-02-06T06:00:28.119Z,99183.73
2019-02-06T06:03:00.101Z,99181.86
2019-02-06T06:05:32.091Z,99183.11
2019-02-06T06:08:04.126Z,99180.03
2019-02-06T06:10:36.076Z,99186.14
2019-02-06T06:13:08.112Z,99186.55
2019-02-06T06:15:40.185Z,99181.55
2019-02-06T06:18:12.260Z,99187.00
2019-02-06T06:20:44.214Z,99189.00
2019-02-06T06:23:16.521Z,99180.93
2019-02-06T06:25:48.500Z,99179.28
2019-02-06T06:28:20.505Z,99181.59
2019-02-06T06:30:52.483Z,99185.17
2019-02-06T06:33:24.473Z,99184.99
2019-02-06T06:35:56.747Z,99184.50
2019-02-06T06:38:28.754Z,99180.61
2019-02-06T06:41:00.873Z,99185.53
2019-02-06T06:43:32.881Z,99177.37
2019-02-06T06:46:04.869Z,99185.06
2019-02-06T06:48:37.057Z,99181.77
2019-02-06T06:51:09.023Z,99180.42
2019-02-06T06:53:41.018Z,99182.24
2019-02-06T06:56:13.080Z,99184.03
2019-02-06T06:58:45.061Z,99187.16
2019-02-06T07:01:17.023Z,99179.74
2019-02-06T07:03:49.033Z,99187.06
2019-02-06T07:06:21.077Z,99189.16
2019-02-06T07:08:53.095Z,99186.13
2019-02-06T07:11:25.107Z,99181.67
2019-02-06T07:13:57.133Z,99183.30
2019-02-06T07:16:29.108Z,99180.25
2019-02-06T07:19:02.915Z,99187.63
2019-02-06T07:21:34.888Z,99187.58
2019-02-06T07:24:06.859Z,99195.29
2019-02-06T07:26:39.098Z,99198.98
2019-02-06T07:29:11.069Z,99194.08
2019-02-06T07:31:43.069Z,99194.25
2019-02-06T07:34:15.080Z,99202.72
2019-02-06T07:36:47.134Z,99198.17
2019-02-06T07:39:19.145Z,99199.78
2019-02-06T07:41:51.158Z,99205.61
2019-02-06T07:44:23.129Z,99208.45
2019-02-06T07:46:55.108Z,99205.92
2019-02-06T07:49:27.161Z,99199.94
2019-02-06T07:51:59.200Z,99196.56
2019-02-06T07:54:31.233Z,99195.66
2019-02-06T07:57:03.233Z,99194.27
2019-02-06T07:59:35.203Z,99195.56
2019-02-06T08:02:07.197Z,99189.30
2019-02-06T08:04:41.498Z,99186.37
2019-02-06T08:07:13.133Z,99183.41
2019-02-06T08:09:45.150Z,99184.56
2019-02-06T08:12:17.195Z,99190.33
2019-02-06T08:14:49.999Z,99195.66
2019-02-06T08:17:22.007Z,99189.70
2019-02-06T08:19:54.006Z,99189.74
2019-02-06T08:22:26.008Z,99191.90
2019-02-06T08:24:58.007Z,99187.95
2019-02-06T08:27:30.512Z,99193.66
2019-02-06T08:30:02.854Z,99181.69
2019-02-06T08:32:37.813Z,99190.48
2019-02-06T08:35:09.052Z,99181.74
2019-02-06T08:37:41.072Z,99185.22
2019-02-06T08:40:13.669Z,99192.03
2019-02-06T08:42:45.628Z,99183.27
2019-02-06T08:45:17.893Z,99184.52
2019-02-06T08:47:49.845Z,99180.22
2019-02-06T08:50:21.899Z,99177.75
2019-02-06T08:52:54.311Z,99186.53
2019-02-06T08:55:27.491Z,99178.11
2019-02-06T08:57:59.881Z,99180.09
2019-02-06T09:00:33.774Z,99172.86
2019-02-06T09:03:07.937Z,99179.86
2019-02-06T09:05:39.907Z,99176.64
2019-02-06T09:08:11.920Z,99174.80
2019-02-06T09:10:43.924Z,99177.05
2019-02-06T09:13:15.940Z,99168.53
2019-02-06T09:15:47.959Z,99172.25
2019-02-06T09:18:19.962Z,99169.21
2019-02-06T09:20:52.763Z,99172.50
2019-02-06T09:23:25.156Z,99172.18
2019-02-06T09:25:57.559Z,99173.23
2019-02-06T09:28:30.041Z,99176.35
2019-02-06T09:31:02.009Z,99171.03
2019-02-06T09:33:34.032Z,99168.81
2019-02-06T09:36:06.039Z,99169.22
2019-02-06T09:38:38.079Z,99166.29
2019-02-06T09:41:10.183Z,99168.15
2019-02-06T09:43:42.180Z,99159.05
2019-02-06T09:46:14.273Z,99147.02
2019-02-06T09:48:46.250Z,99146.83
2019-02-06T09:51:19.365Z,99145.38
2019-02-06T09:53:52.180Z,99146.38
2019-02-06T09:56:24.232Z,99148.08
2019-02-06T09:58:56.192Z,99145.33
2019-02-06T10:01:28.191Z,99141.86
2019-02-06T10:04:00.167Z,99137.01
2019-02-06T10:06:34.093Z,99137.81
2019-02-06T10:09:07.543Z,99130.13
2019-02-06T10:11:39.543Z,99132.84
2019-02-06T10:14:11.515Z,99124.48
2019-02-06T10:16:43.505Z,99125.33
2019-02-06T10:19:17.371Z,99121.91
2019-02-06T10:21:52.786Z,99126.61
2019-02-06T10:24:23.292Z,99123.68
2019-02-06T10:26:55.272Z,99123.83
2019-02-06T10:29:27.248Z,99123.23
2019-02-06T10:31:59.435Z,99117.94
2019-02-06T10:34:31.441Z,99104.32
2019-02-06T10:37:03.570Z,99103.05
2019-02-06T10:39:35.580Z,99096.66
2019-02-06T10:42:07.617Z,99088.33
2019-02-06T10:44:39.628Z,99089.66
2019-02-06T10:47:11.663Z,99081.16
2019-02-06T10:49:43.655Z,99083.10
2019-02-06T10:52:15.718Z,99076.53
2019-02-06T10:54:47.733Z,99076.74
2019-02-06T10:57:19.755Z,99064.22
2019-02-06T10:59:51.817Z,99065.22
2019-02-06T11:02:23.820Z,99058.96
2019-02-06T11:04:55.804Z,99053.86
2019-02-06T11:07:27.812Z,99058.93
2019-02-06T11:09:59.815Z,99045.67
2019-02-06T11:12:31.806Z,99045.59
2019-02-06T11:15:44.719Z,99034.28
2019-02-06T11:18:16.709Z,99032.17
2019-02-06T11:20:48.724Z,99025.70
2019-02-06T11:23:20.692Z,99031.80
2019-02-06T11:25:52.716Z,99022.93
2019-02-06T11:28:24.693Z,99013.55
2019-02-06T11:30:57.345Z,99016.95
2019-02-06T11:33:30.578Z,99014.29
2019-02-06T11:36:24.332Z,99008.05
2019-02-06T11:38:55.887Z,99003.03
2019-02-06T11:41:27.869Z,98998.62
2019-02-06T11:43:59.876Z,98993.07
2019-02-06T11:46:31.934Z,98995.17
2019-02-06T11:51:57.942Z,98977.83
2019-02-06T11:54:29.938Z,98978.77
2019-02-06T11:57:03.891Z,98974.81
2019-02-06T11:59:35.885Z,98975.92
2019-02-06T12:02:07.909Z,98969.01
2019-02-06T12:04:39.919Z,98963.63
2019-02-06T12:07:11.964Z,98962.13
2019-02-06T12:09:45.865Z,98955.30
2019-02-06T12:12:17.899Z,98946.36
2019-02-06T12:14:49.872Z,98946.80
2019-02-06T12:17:21.875Z,98937.03
2019-02-06T12:19:53.873Z,98938.52
2019-02-06T12:22:27.792Z,98929.80
2019-02-06T12:24:59.830Z,98926.66
2019-02-06T12:27:31.855Z,98920.89
2019-02-06T12:30:46.301Z,98906.99
2019-02-06T12:35:56.325Z,98905.91
2019-02-06T12:38:28.346Z,98912.22
2019-02-06T12:41:00.354Z,98892.59
2019-02-06T12:43:32.350Z,98894.40
2019-02-06T12:46:45.328Z,98891.35
2019-02-06T12:49:17.332Z,98886.09
2019-02-06T12:51:52.270Z,98876.05
2019-02-06T12:54:23.291Z,98879.90
2019-02-06T12:56:55.278Z,98870.48
2019-02-06T12:59:29.219Z,98861.08
2019-02-06T13:02:01.198Z,98862.52
2019-02-06T13:04:33.282Z,98857.94
2019-02-06T13:07:05.261Z,98857.97
2019-02-06T13:09:37.298Z,98854.50
2019-02-06T13:12:11.210Z,98854.92
2019-02-06T13:14:43.213Z,98855.46
2019-02-06T13:17:15.211Z,98854.45
2019-02-06T13:19:47.247Z,98846.81
2019-02-06T13:22:19.244Z,98848.88
2019-02-06T13:24:53.171Z,98844.14
2019-02-06T13:27:28.150Z,98836.13
2019-02-06T13:30:00.203Z,98837.30
2019-02-06T13:32:32.175Z,98835.63
2019-02-06T13:35:45.556Z,98829.42
2019-02-06T13:38:17.551Z,98825.95
2019-02-06T13:40:49.588Z,98824.96
2019-02-06T13:43:21.621Z,98816.29
2019-02-06T13:45:53.633Z,98816.30
2019-02-06T13:48:25.601Z,98802.70
2019-02-06T13:50:57.661Z,98796.94
2019-02-06T13:53:29.723Z,98794.64
2019-02-06T13:56:01.764Z,98787.39
2019-02-06T13:58:33.797Z,98775.69
2019-02-06T14:01:05.840Z,98777.09
2019-02-06T14:03:37.829Z,98779.25
2019-02-06T14:06:11.444Z,98775.78
2019-02-06T14:08:43.766Z,98768.38
2019-02-06T14:11:15.782Z,98769.32
2019-02-06T14:13:47.817Z,98765.11
2019-02-06T14:16:19.848Z,98758.45
2019-02-06T14:18:53.778Z,98758.49
2019-02-06T14:21:25.933Z,98745.70
2019-02-06T14:24:29.113Z,98746.59
2019-02-06T14:27:40.069Z,98746.08
2019-02-06T14:30:20.598Z,98748.22
2019-02-06T14:33:18.905Z,98741.62
2019-02-06T14:36:29.882Z,98740.71
2019-02-06T14:39:40.831Z,98743.66
2019-02-06T14:42:56.344Z,98743.70
2019-02-06T14:46:03.083Z,98739.88
2019-02-06T14:49:13.170Z,98732.98
2019-02-06T14:52:39.588Z,98725.88
2019-02-06T14:55:40.338Z,98734.15
2019-02-06T14:58:56.931Z,98724.55
2019-02-06T15:02:17.087Z,98715.69
2019-02-06T15:05:45.044Z,98715.30
2019-02-06T15:08:42.440Z,98714.97
2019-02-06T15:11:45.976Z,98703.47
2019-02-06T15:14:37.222Z,98701.60
2019-02-06T15:17:53.202Z,98698.69
2019-02-06T15:20:58.415Z,98699.22
2019-02-06T15:24:08.309Z,98689.69
2019-02-06T15:27:42.131Z,98695.80
2019-02-06T15:30:56.905Z,98687.81
2019-02-06T15:34:15.433Z,98687.06
2019-02-06T15:37:10.560Z,98679.71
2019-02-06T15:40:33.155Z,98678.95
2019-02-06T15:43:52.280Z,98680.72
2019-02-06T15:47:08.275Z,98681.34
2019-02-06T15:50:10.211Z,98684.53
2019-02-06T15:53:06.990Z,98681.84
2019-02-06T15:56:19.902Z,98682.37
2019-02-06T15:59:25.325Z,98676.88
2019-02-06T16:02:30.373Z,98681.17
2019-02-06T16:05:52.469Z,98675.53
2019-02-06T16:09:18.588Z,98672.95
2019-02-06T16:12:38.200Z,98674.89
2019-02-06T16:15:25.646Z,98676.57
2019-02-06T16:18:43.010Z,98674.93
2019-02-06T16:21:53.272Z,98675.12
2019-02-06T16:24:32.745Z,98674.81
2019-02-06T16:28:20.385Z,98671.19
2019-02-06T16:31:43.250Z,98672.64
2019-02-06T16:34:59.711Z,98671.05
2019-02-06T16:38:10.994Z,98673.53
2019-02-06T16:41:08.431Z,98675.08
2019-02-06T16:44:30.417Z,98668.19
2019-02-06T16:47:52.247Z,98673.20
2019-02-06T16:51:09.031Z,98671.21
2019-02-06T16:54:16.302Z,98675.11
2019-02-06T16:57:29.526Z,98671.13
2019-02-06T17:00:25.253Z,98673.45
2019-02-06T17:03:45.032Z,98674.18
2019-02-06T17:06:38.866Z,98682.39
2019-02-06T17:09:43.397Z,98676.22
2019-02-06T17:12:44.473Z,98681.52
2019-02-06T17:15:50.584Z,98683.26
2019-02-06T17:18:55.255Z,98682.09
2019-02-06T17:22:24.293Z,98680.59
2019-02-06T17:25:47.060Z,98680.50
2019-02-06T17:28:45.274Z,98670.19
2019-02-06T17:32:11.116Z,98678.56
2019-02-06T17:35:11.707Z,98670.62
2019-02-06T17:38:22.713Z,98662.96
2019-02-06T17:41:31.537Z,98668.70
2019-02-06T17:44:36.483Z,98669.95
2019-02-06T17:47:53.088Z,98665.31
2019-02-06T17:50:54.429Z,98666.92
2019-02-06T17:53:32.585Z,98660.83
2019-02-06T17:56:04.636Z,98660.12
2019-02-06T17:58:42.067Z,98666.05
2019-02-06T18:01:47.839Z,98655.17
2019-02-06T18:04:28.808Z,98658.17
2019-02-06T18:07:02.014Z,98648.99
2019-02-06T18:09:34.075Z,98646.94
2019-02-06T18:12:06.597Z,98643.66
2019-02-06T18:14:38.637Z,98653.23
2019-02-06T18:17:10.746Z,98644.94
2019-02-06T18:19:42.808Z,98651.34
2019-02-06T18:22:14.871Z,98654.38
2019-02-06T18:24:47.142Z,98658.04
2019-02-06T18:27:19.376Z,98655.50
2019-02-06T18:29:53.293Z,98660.08
2019-02-06T18:32:26.035Z,98650.94
2019-02-06T18:34:58.081Z,98660.34
2019-02-06T18:37:30.578Z,98657.82
2019-02-06T18:40:03.883Z,98658.78
2019-02-06T18:42:36.998Z,98657.84
2019-02-06T18:45:12.642Z,98649.71
2019-02-06T18:47:45.318Z,98648.88
2019-02-06T18:50:19.623Z,98637.63
2019-02-06T18:52:51.878Z,98637.94
2019-02-06T18:55:23.946Z,98635.60
2019-02-06T18:57:56.346Z,98634.53
2019-02-06T19:00:32.272Z,98638.24
2019-02-06T19:03:08.460Z,98629.29
2019-02-06T19:05:40.558Z,98631.80
2019-02-06T19:08:12.740Z,98622.42
2019-02-06T19:10:45.066Z,98630.37
2019-02-06T19:13:17.068Z,98620.10
2019-02-06T19:15:56.623Z,98618.13
2019-02-06T19:18:24.163Z,98622.86
2019-02-06T19:20:58.272Z,98617.58
2019-02-06T19:23:32.541Z,98615.14
2019-02-06T19:26:04.775Z,98613.65
2019-02-06T19:28:38.612Z,98615.41
2019-02-06T19:31:10.993Z,98616.63
2019-02-06T19:33:43.132Z,98614.73
2019-02-06T19:36:15.524Z,98609.43
2019-02-06T19:38:47.883Z,98607.52
2019-02-06T19:41:19.997Z,98607.90
2019-02-06T19:43:52.039Z,98600.53
2019-02-06T19:46:24.775Z,98600.34
2019-02-06T19:48:56.817Z,98592.38
2019-02-06T19:51:29.442Z,98586.95
2019-02-06T19:54:01.480Z,98583.75
2019-02-06T19:56:33.610Z,98582.54
2019-02-06T19:59:05.818Z,98580.91
2019-02-06T20:01:37.991Z,98580.73
2019-02-06T20:04:10.280Z,98580.22
2019-02-06T20:06:42.607Z,98573.60
2019-02-06T20:09:14.967Z,98581.28
2019-02-06T20:11:47.375Z,98578.42
2019-02-06T20:14:19.425Z,98577.83
2019-02-06T20:16:51.603Z,98571.34
2019-02-06T20:19:24.269Z,98568.09
2019-02-06T20:21:56.438Z,98564.28
2019-02-06T20:24:28.475Z,98566.63
2019-02-06T20:27:00.865Z,98554.36
2019-02-06T20:29:32.963Z,98557.13
2019-02-06T20:32:05.027Z,98551.59
2019-02-06T20:34:37.130Z,98551.83
2019-02-06T20:37:09.201Z,98556.50
2019-02-06T20:39:41.283Z,98556.81
2019-02-06T20:42:13.402Z,98555.92
2019-02-06T20:44:45.546Z,98553.08
2019-02-06T20:47:17.752Z,98543.77
2019-02-06T20:49:49.850Z,98548.20
2019-02-06T20:52:23.663Z,98546.80
2019-02-06T20:54:55.890Z,98552.09
2019-02-06T20:57:28.013Z,98548.88
2019-02-06T21:00:00.549Z,98556.97
2019-02-06T21:02:32.587Z,98546.19
2019-02-06T21:05:05.654Z,98547.95
2019-02-06T21:07:37.786Z,98540.93
2019-02-06T21:10:14.071Z,98536.78
2019-02-06T21:12:46.075Z,98541.77
2019-02-06T21:15:18.145Z,98537.27
2019-02-06T21:17:50.280Z,98539.05
2019-02-06T21:20:22.376Z,98541.75
2019-02-06T21:22:54.565Z,98538.50
2019-02-06T21:25:26.641Z,98530.12
2019-02-06T21:27:58.656Z,98519.48
2019-02-06T21:30:32.454Z,98514.97
2019-02-06T21:33:04.503Z,98505.43
2019-02-06T21:35:36.582Z,98504.27
2019-02-06T21:38:08.594Z,98506.81
2019-02-06T21:40:40.852Z,98505.56
2019-02-06T21:43:12.863Z,98503.56
2019-02-06T21:45:44.928Z,98501.75
2019-02-06T21:48:16.944Z,98499.05
2019-02-06T21:50:48.983Z,98493.98
2019-02-06T21:53:20.980Z,98497.66
2019-02-06T21:55:53.021Z,98502.97
2019-02-06T21:58:25.078Z,98499.98
2019-02-06T22:00:57.115Z,98499.09
2019-02-06T22:03:29.138Z,98497.36
2019-02-06T22:06:01.185Z,98495.34
2019-02-06T22:08:33.159Z,98487.91
2019-02-06T22:11:05.273Z,98484.52
2019-02-06T22:13:37.822Z,98483.04
2019-02-06T22:16:09.868Z,98480.80
2019-02-06T22:18:42.075Z,98481.31
2019-02-06T22:21:14.134Z,98478.36
2019-02-06T22:23:46.108Z,98475.30
2019-02-06T22:26:18.775Z,98479.23
2019-02-06T22:28:50.795Z,98470.02
2019-02-06T22:31:22.829Z,98480.42
2019-02-06T22:33:56.249Z,98474.70
2019-02-06T22:36:28.237Z,98458.94
2019-02-06T22:39:00.254Z,98466.10
2019-02-06T22:41:32.254Z,98465.03
2019-02-06T22:44:06.593Z,98463.96
2019-02-06T22:46:38.225Z,98461.12
2019-02-06T22:49:10.253Z,98458.17
2019-02-06T22:51:42.252Z,98459.79
2019-02-06T22:54:14.247Z,98468.28
2019-02-06T22:56:46.352Z,98471.00
2019-02-06T23:01:57.586Z,98478.41
2019-02-06T23:04:29.626Z,98484.99
2019-02-06T23:07:01.583Z,98484.11
2019-02-06T23:09:53.162Z,98474.55
2019-02-06T23:12:27.334Z,98474.92
2019-02-06T23:14:59.097Z,98470.12
2019-02-06T23:17:31.094Z,98472.05
2019-02-06T23:20:43.989Z,98471.00
2019-02-06T23:23:16.023Z,98464.03
2019-02-06T23:25:48.033Z,98454.33
2019-02-06T23:28:20.035Z,98450.93
2019-02-06T23:30:52.061Z,98449.89
2019-02-06T23:33:24.092Z,98446.50
2019-02-06T23:35:56.122Z,98445.42
2019-02-06T23:38:28.130Z,98443.44
2019-02-06T23:41:00.145Z,98434.69
2019-02-06T23:43:32.142Z,98428.12
2019-02-06T23:46:04.323Z,98426.34
2019-02-06T23:48:36.351Z,98415.42
2019-02-06T23:51:10.285Z,98420.59
2019-02-06T23:53:42.300Z,98414.53
2019-02-06T23:56:14.312Z,98406.46
2019-02-06T23:58:46.275Z,98400.59
